Time;durP1;ratioP1;P1;durP2;ratioP2;P2;SDS_P1;SDS_P2;PMS_P1;PMS_P2;Temp;Humidity;BMP_temperature;BMP_pressure;BME280_temperature;BME280_humidity;BME280_pressure;Samples;Min_cycle;Max_cycle;Signal;HPM_P1;HPM_P2
2022/01/26 00:07:13;;;;;;;40.10;15.30;;;;;;;;;;5036678;28;20462;-77
2022/01/26 00:09:39;;;;;;;40.92;14.70;;;;;;;;;;5030756;28;20138;-78
2022/01/26 00:12:05;;;;;;;42.40;16.20;;;;;;;;;;5053339;28;20068;-77
2022/01/26 00:14:31;;;;;;;37.55;14.73;;;;;;;;;;5031672;28;20056;-77
2022/01/26 00:16:59;;;;;;;40.53;15.68;;;;;;;;;;5065789;28;20060;-77
2022/01/26 00:19:32;;;;;;;40.92;16.30;;;;;;;;;;5045162;28;20147;-77
2022/01/26 00:21:58;;;;;;;40.15;14.02;;;;;;;;;;5067200;28;20039;-77
2022/01/26 00:27:09;;;;;;;43.45;15.70;;;;;;;;;;5069032;28;20369;-76
2022/01/26 00:29:37;;;;;;;38.53;14.30;;;;;;;;;;5054471;28;20414;-78
2022/01/26 00:42:59;;;;;;;43.88;15.48;;;;;;;;;;5061989;28;20532;-78
2022/01/26 00:45:32;;;;;;;46.30;16.60;;;;;;;;;;5049713;28;20413;-77
2022/01/26 00:48:02;;;;;;;46.72;17.67;;;;;;;;;;5049709;28;20040;-78
2022/01/26 00:50:28;;;;;;;47.42;16.98;;;;;;;;;;5049357;28;20037;-77
2022/01/26 00:52:55;;;;;;;41.70;16.42;;;;;;;;;;5068489;28;20037;-78
2022/01/26 00:55:21;;;;;;;41.17;14.98;;;;;;;;;;5050615;28;20520;-78
2022/01/26 00:57:48;;;;;;;42.95;14.88;;;;;;;;;;5049891;28;20052;-78
2022/01/26 01:00:21;;;;;;;36.78;14.38;;;;;;;;;;5069690;28;20033;-78
2022/01/26 01:02:48;;;;;;;42.28;14.88;;;;;;;;;;5050958;28;20051;-78
2022/01/26 01:05:20;;;;;;;39.63;14.88;;;;;;;;;;5069537;28;20043;-78
2022/01/26 01:07:50;;;;;;;41.15;15.02;;;;;;;;;;5069614;28;20033;-76
2022/01/26 01:10:19;;;;;;;42.90;14.32;;;;;;;;;;5050305;28;20055;-76
2022/01/26 01:12:47;;;;;;;38.50;14.32;;;;;;;;;;5050515;28;20056;-77
2022/01/26 01:15:15;;;;;;;38.33;14.32;;;;;;;;;;5069269;28;20036;-77
2022/01/26 01:17:47;;;;;;;37.47;14.65;;;;;;;;;;5050582;28;20055;-76
2022/01/26 01:30:42;;;;;;;31.67;12.02;;;;;;;;;;5069592;28;20032;-77
2022/01/26 01:33:09;;;;;;;31.98;12.57;;;;;;;;;;5055996;28;20043;-77
2022/01/26 01:35:39;;;;;;;31.52;12.38;;;;;;;;;;5085086;28;20035;-77
2022/01/26 01:38:12;;;;;;;31.05;12.43;;;;;;;;;;5070060;28;20047;-77
2022/01/26 01:40:42;;;;;;;36.78;12.55;;;;;;;;;;5086905;28;20511;-77
2022/01/26 01:43:09;;;;;;;27.83;12.20;;;;;;;;;;5086712;28;20032;-77
2022/01/26 01:45:37;;;;;;;34.70;12.13;;;;;;;;;;5066483;28;20041;-77
2022/01/26 01:48:04;;;;;;;30.67;12.77;;;;;;;;;;5065058;28;20051;-77
2022/01/26 01:50:36;;;;;;;36.55;12.10;;;;;;;;;;5063886;28;20056;-77
2022/01/26 01:53:02;;;;;;;32.60;12.07;;;;;;;;;;5066697;28;20504;-77
2022/01/26 01:55:29;;;;;;;31.95;11.73;;;;;;;;;;5082073;28;20040;-77
2022/01/26 01:57:56;;;;;;;30.35;12.55;;;;;;;;;;5068859;28;20032;-77
2022/01/26 02:00:24;;;;;;;30.42;12.77;;;;;;;;;;5063732;28;20440;-77
2022/01/26 02:02:50;;;;;;;31.88;11.80;;;;;;;;;;5048666;28;20486;-77
2022/01/26 02:05:16;;;;;;;29.05;12.70;;;;;;;;;;5047588;28;20087;-77
2022/01/26 02:07:42;;;;;;;34.42;11.55;;;;;;;;;;5048376;28;20458;-77
2022/01/26 02:10:09;;;;;;;34.28;13.32;;;;;;;;;;5029126;28;20045;-77
2022/01/26 02:12:39;;;;;;;31.75;13.63;;;;;;;;;;5045070;28;20397;-77
2022/01/26 02:15:12;;;;;;;31.95;12.55;;;;;;;;;;5062520;28;20032;-77
2022/01/26 02:53:50;;;;;;;25.77;11.43;;;;;;;;;;5066248;28;20029;-78
2022/01/26 03:04:41;;;;;;;32.40;11.15;;;;;;;;;;5067093;28;20448;-77
2022/01/26 03:09:34;;;;;;;28.45;11.70;;;;;;;;;;5066634;28;20051;-77
2022/01/26 03:12:01;;;;;;;27.77;10.75;;;;;;;;;;5065935;28;20045;-77
2022/01/26 03:19:57;;;;;;;26.95;12.15;;;;;;;;;;5066638;28;20073;-77
2022/01/26 03:30:20;;;;;;;26.90;12.68;;;;;;;;;;5066521;28;20037;-76
2022/01/26 03:35:47;;;;;;;28.40;11.15;;;;;;;;;;5050652;28;20384;-76
2022/01/26 03:38:20;;;;;;;28.05;10.13;;;;;;;;;;5049554;28;20053;-76
2022/01/26 03:40:48;;;;;;;25.05;10.30;;;;;;;;;;5049652;28;20132;-77
2022/01/26 03:43:14;;;;;;;25.25;10.15;;;;;;;;;;5049635;28;20159;-77
2022/01/26 03:45:40;;;;;;;26.73;10.70;;;;;;;;;;5050454;28;20045;-78
2022/01/26 03:48:06;;;;;;;26.27;9.57;;;;;;;;;;5031735;28;20063;-77
2022/01/26 03:50:31;;;;;;;28.23;10.20;;;;;;;;;;5031663;28;20051;-78
2022/01/26 03:52:57;;;;;;;26.10;10.43;;;;;;;;;;5050370;28;20090;-77
2022/01/26 03:55:23;;;;;;;24.20;10.25;;;;;;;;;;5050218;28;20174;-77
2022/01/26 03:57:49;;;;;;;25.58;9.45;;;;;;;;;;5050026;28;20037;-77
2022/01/26 04:00:17;;;;;;;22.55;9.70;;;;;;;;;;5069742;28;20062;-77
2022/01/26 04:02:43;;;;;;;23.73;9.43;;;;;;;;;;5070093;28;20039;-77
2022/01/26 04:05:11;;;;;;;20.30;8.52;;;;;;;;;;5069241;28;20067;-77
2022/01/26 04:07:38;;;;;;;23.95;9.73;;;;;;;;;;5067259;28;20048;-78
2022/01/26 04:10:17;;;;;;;25.98;9.50;;;;;;;;;;5069141;28;20489;-78
2022/01/26 04:12:43;;;;;;;19.95;9.10;;;;;;;;;;5066865;28;20055;-78
2022/01/26 04:15:19;;;;;;;24.40;9.25;;;;;;;;;;5069883;28;20617;-76
2022/01/26 04:17:45;;;;;;;23.08;9.52;;;;;;;;;;5068964;28;20052;-76
2022/01/26 04:20:12;;;;;;;26.30;10.02;;;;;;;;;;5069276;28;20049;-76
2022/01/26 04:22:50;;;;;;;28.98;10.98;;;;;;;;;;5069502;28;20055;-78
2022/01/26 04:25:20;;;;;;;22.20;9.52;;;;;;;;;;5069798;28;20398;-78
2022/01/26 04:27:50;;;;;;;23.52;10.30;;;;;;;;;;5069223;28;20056;-76
2022/01/26 04:30:15;;;;;;;27.17;10.45;;;;;;;;;;5069042;28;20049;-75
2022/01/26 04:32:41;;;;;;;25.08;10.55;;;;;;;;;;5067550;28;20090;-78
2022/01/26 04:35:09;;;;;;;26.55;10.80;;;;;;;;;;5049414;28;20141;-77
2022/01/26 04:40:12;;;;;;;28.00;10.73;;;;;;;;;;5049596;28;20048;-77
2022/01/26 04:43:02;;;;;;;25.20;10.60;;;;;;;;;;5048834;28;20052;-77
2022/01/26 04:45:28;;;;;;;25.35;10.82;;;;;;;;;;5048730;28;20044;-78
2022/01/26 04:47:54;;;;;;;26.05;11.30;;;;;;;;;;5049120;28;20052;-76
2022/01/26 04:50:20;;;;;;;25.92;10.98;;;;;;;;;;5051735;28;20052;-77
2022/01/26 04:52:46;;;;;;;26.35;10.45;;;;;;;;;;5055786;28;20041;-77
2022/01/26 04:55:13;;;;;;;25.23;10.98;;;;;;;;;;5088446;28;20036;-77
2022/01/26 04:57:40;;;;;;;26.85;11.55;;;;;;;;;;5069884;28;20517;-77
2022/01/26 05:00:08;;;;;;;25.73;11.18;;;;;;;;;;5066570;28;20036;-77
2022/01/26 05:02:35;;;;;;;29.05;10.73;;;;;;;;;;5048389;28;20450;-77
2022/01/26 05:05:01;;;;;;;24.95;10.60;;;;;;;;;;5059640;28;20509;-77
2022/01/26 05:07:26;;;;;;;23.42;10.65;;;;;;;;;;5069275;28;20036;-77
2022/01/26 05:09:52;;;;;;;25.67;10.93;;;;;;;;;;5069358;28;20093;-77
2022/01/26 05:12:19;;;;;;;26.77;11.23;;;;;;;;;;5068166;28;20138;-77
2022/01/26 05:14:47;;;;;;;28.65;11.73;;;;;;;;;;5068406;28;20401;-77
2022/01/26 05:17:14;;;;;;;27.00;10.63;;;;;;;;;;5069000;28;20047;-77
2022/01/26 05:19:40;;;;;;;25.08;10.52;;;;;;;;;;5068629;28;20044;-77
2022/01/26 05:22:07;;;;;;;29.52;12.25;;;;;;;;;;5069111;28;20383;-77
2022/01/26 05:24:33;;;;;;;25.98;11.15;;;;;;;;;;5068103;28;20044;-77
2022/01/26 05:26:59;;;;;;;30.20;12.20;;;;;;;;;;5068992;28;20039;-77
2022/01/26 05:29:24;;;;;;;30.58;12.40;;;;;;;;;;5068116;28;20139;-77
2022/01/26 05:31:50;;;;;;;28.50;12.15;;;;;;;;;;5048515;28;20079;-76
2022/01/26 05:34:16;;;;;;;28.75;13.10;;;;;;;;;;5067031;28;20032;-77
2022/01/26 05:36:42;;;;;;;30.85;12.52;;;;;;;;;;5066298;28;20049;-77
2022/01/26 05:39:08;;;;;;;32.72;13.52;;;;;;;;;;5066490;28;20056;-77
2022/01/26 05:41:34;;;;;;;31.27;12.18;;;;;;;;;;5066386;28;20062;-76
2022/01/26 05:44:00;;;;;;;30.70;12.40;;;;;;;;;;5066736;28;20135;-77
2022/01/26 05:46:37;;;;;;;27.50;12.95;;;;;;;;;;5065981;28;20048;-77
2022/01/26 05:49:03;;;;;;;35.83;13.68;;;;;;;;;;5066440;28;20032;-77
2022/01/26 05:51:32;;;;;;;33.17;13.20;;;;;;;;;;5065469;28;20430;-76
2022/01/26 05:53:58;;;;;;;29.17;12.40;;;;;;;;;;5065476;28;20048;-77
2022/01/26 05:56:24;;;;;;;31.77;13.25;;;;;;;;;;5065595;28;20493;-77
2022/01/26 05:58:50;;;;;;;27.88;12.10;;;;;;;;;;5065206;28;20143;-76
2022/01/26 06:01:16;;;;;;;35.33;13.40;;;;;;;;;;5065248;28;20486;-76
2022/01/26 06:03:42;;;;;;;29.98;13.75;;;;;;;;;;5046473;28;20041;-78
2022/01/26 06:06:11;;;;;;;28.75;12.25;;;;;;;;;;5068104;28;20076;-76
2022/01/26 06:08:37;;;;;;;27.13;11.90;;;;;;;;;;5071971;28;20139;-76
2022/01/26 06:11:07;;;;;;;28.13;12.05;;;;;;;;;;5049647;28;20512;-78
2022/01/26 06:13:33;;;;;;;27.55;13.18;;;;;;;;;;5048138;28;20040;-77
2022/01/26 06:15:59;;;;;;;28.70;12.80;;;;;;;;;;5068610;28;20052;-77
2022/01/26 06:18:25;;;;;;;27.17;12.13;;;;;;;;;;5058976;28;20056;-75
2022/01/26 06:20:51;;;;;;;27.48;11.77;;;;;;;;;;5029399;28;20051;-76
2022/01/26 06:23:19;;;;;;;28.95;12.30;;;;;;;;;;5054100;28;20048;-76
2022/01/26 06:25:45;;;;;;;30.08;12.63;;;;;;;;;;5066622;28;20056;-76
2022/01/26 06:28:13;;;;;;;31.90;16.63;;;;;;;;;;5067641;28;20040;-76
2022/01/26 06:30:45;;;;;;;31.35;12.45;;;;;;;;;;5053166;28;20052;-72
2022/01/26 06:33:13;;;;;;;31.23;12.65;;;;;;;;;;5040426;28;20053;-72
2022/01/26 06:35:39;;;;;;;30.40;12.38;;;;;;;;;;5052207;28;20052;-73
2022/01/26 06:38:05;;;;;;;25.95;11.73;;;;;;;;;;5054527;28;20442;-72
2022/01/26 06:40:31;;;;;;;28.35;12.68;;;;;;;;;;5034848;28;20148;-72
2022/01/26 06:43:01;;;;;;;27.70;12.40;;;;;;;;;;5059971;28;20049;-72
2022/01/26 06:45:32;;;;;;;28.25;12.13;;;;;;;;;;5067583;28;20494;-72
2022/01/26 06:50:42;;;;;;;25.45;12.25;;;;;;;;;;5060582;28;20041;-72
2022/01/26 06:53:08;;;;;;;26.10;11.85;;;;;;;;;;5041499;28;20049;-72
2022/01/26 06:55:36;;;;;;;22.67;11.20;;;;;;;;;;5059663;28;20051;-71
2022/01/26 06:58:02;;;;;;;23.00;11.40;;;;;;;;;;5059022;28;20055;-71
2022/01/26 07:00:28;;;;;;;26.83;11.52;;;;;;;;;;5047346;28;20040;-71
2022/01/26 07:02:54;;;;;;;32.75;16.35;;;;;;;;;;5058165;28;20024;-71
2022/01/26 07:05:22;;;;;;;34.65;16.75;;;;;;;;;;5064726;28;20028;-72
2022/01/26 07:07:48;;;;;;;23.00;10.25;;;;;;;;;;5054164;28;20055;-73
2022/01/26 07:10:14;;;;;;;15.32;8.38;;;;;;;;;;5057708;28;20021;-72
2022/01/26 07:12:40;;;;;;;15.25;8.32;;;;;;;;;;5055099;28;20024;-73
2022/01/26 07:23:06;;;;;;;18.95;8.60;;;;;;;;;;5047373;28;20044;-76
2022/01/26 07:25:32;;;;;;;14.68;7.63;;;;;;;;;;5030711;28;20044;-74
2022/01/26 07:28:01;;;;;;;11.45;6.43;;;;;;;;;;5046424;28;20525;-76
2022/01/26 07:30:27;;;;;;;12.63;7.05;;;;;;;;;;5044264;28;20056;-75
2022/01/26 07:32:53;;;;;;;12.15;7.22;;;;;;;;;;5051359;28;20040;-76
2022/01/26 07:35:19;;;;;;;15.43;7.22;;;;;;;;;;5062209;28;20137;-75
2022/01/26 07:37:47;;;;;;;13.82;6.97;;;;;;;;;;5063304;28;20028;-76
2022/01/26 07:40:13;;;;;;;21.13;10.75;;;;;;;;;;5065397;28;20040;-76
2022/01/26 07:42:40;;;;;;;36.65;18.50;;;;;;;;;;5067741;28;20459;-76
2022/01/26 07:45:09;;;;;;;14.68;7.38;;;;;;;;;;5056337;28;20490;-74
2022/01/26 07:47:37;;;;;;;14.25;7.45;;;;;;;;;;5067438;28;20059;-74
2022/01/26 07:50:06;;;;;;;13.57;6.97;;;;;;;;;;5067009;28;20376;-76
2022/01/26 07:52:37;;;;;;;14.77;7.57;;;;;;;;;;5045585;28;20489;-74
2022/01/26 07:55:04;;;;;;;15.05;7.22;;;;;;;;;;5041756;28;20475;-76
2022/01/26 07:57:30;;;;;;;15.65;7.05;;;;;;;;;;5056203;28;20500;-78
2022/01/26 07:59:56;;;;;;;13.82;7.60;;;;;;;;;;5058129;28;21549;-76
2022/01/26 08:02:23;;;;;;;15.45;8.00;;;;;;;;;;5052277;28;20037;-75
2022/01/26 08:04:49;;;;;;;15.90;8.52;;;;;;;;;;5060525;28;20038;-76
2022/01/26 08:07:15;;;;;;;18.83;8.70;;;;;;;;;;5052987;28;20749;-74
2022/01/26 08:09:43;;;;;;;18.60;9.38;;;;;;;;;;5059737;28;20184;-75
2022/01/26 08:12:17;;;;;;;14.25;8.27;;;;;;;;;;5066735;28;20048;-74
2022/01/26 08:14:45;;;;;;;16.75;8.52;;;;;;;;;;5066788;28;20386;-73
2022/01/26 08:17:14;;;;;;;17.52;8.18;;;;;;;;;;5052753;28;20048;-75
2022/01/26 08:19:41;;;;;;;15.52;7.88;;;;;;;;;;5049616;28;20028;-73
2022/01/26 08:22:07;;;;;;;15.93;8.38;;;;;;;;;;5047304;28;20071;-74
2022/01/26 08:24:33;;;;;;;31.98;16.85;;;;;;;;;;5063592;28;20033;-73
2022/01/26 08:27:10;;;;;;;18.77;9.73;;;;;;;;;;5065070;28;20040;-71
2022/01/26 08:29:41;;;;;;;14.88;7.95;;;;;;;;;;5067564;28;20779;-73
2022/01/26 08:37:19;;;;;;;14.73;7.60;;;;;;;;;;5599254;22;20035;-86
2022/01/26 08:39:45;;;;;;;14.63;8.13;;;;;;;;;;4970373;28;20055;-84
2022/01/26 08:42:11;;;;;;;18.52;8.10;;;;;;;;;;4998008;28;20057;-90
2022/01/26 08:44:37;;;;;;;15.40;7.97;;;;;;;;;;5012818;28;20037;-85
2022/01/26 08:47:06;;;;;;;20.73;9.23;;;;;;;;;;5010092;28;20045;-88
2022/01/26 08:49:33;;;;;;;18.02;8.23;;;;;;;;;;4999154;28;20042;-88
2022/01/26 08:51:59;;;;;;;19.00;9.98;;;;;;;;;;5012499;28;20037;-87
2022/01/26 08:54:25;;;;;;;17.58;9.60;;;;;;;;;;5020432;28;20600;-87
2022/01/26 08:56:53;;;;;;;17.55;8.65;;;;;;;;;;5010438;28;20037;-86
2022/01/26 08:59:21;;;;;;;14.15;7.70;;;;;;;;;;5006445;28;20041;-86
2022/01/26 09:01:47;;;;;;;13.40;7.70;;;;;;;;;;5006732;28;20664;-78
2022/01/26 09:04:14;;;;;;;15.20;8.00;;;;;;;;;;5011932;28;20041;-81
2022/01/26 09:06:51;;;;;;;15.57;7.35;;;;;;;;;;5023164;28;20060;-82
2022/01/26 09:09:22;;;;;;;14.20;7.85;;;;;;;;;;5013639;28;20044;-87
2022/01/26 09:11:49;;;;;;;16.00;7.85;;;;;;;;;;5008405;28;20460;-80
2022/01/26 09:14:22;;;;;;;15.32;8.05;;;;;;;;;;5006201;28;20514;-80
2022/01/26 09:16:51;;;;;;;18.73;8.43;;;;;;;;;;4999582;28;20030;-83
2022/01/26 09:19:30;;;;;;;15.52;7.50;;;;;;;;;;5006450;28;20056;-84
2022/01/26 09:22:02;;;;;;;17.60;7.70;;;;;;;;;;4999331;28;20037;-82
2022/01/26 09:24:30;;;;;;;15.60;8.00;;;;;;;;;;5008682;28;20038;-84
2022/01/26 09:26:57;;;;;;;15.05;7.90;;;;;;;;;;5012253;28;20041;-85
2022/01/26 09:29:23;;;;;;;17.45;9.32;;;;;;;;;;5015109;28;20053;-85
2022/01/26 09:31:50;;;;;;;15.90;8.57;;;;;;;;;;5009302;28;20653;-82
2022/01/26 09:34:21;;;;;;;16.60;8.48;;;;;;;;;;5018181;28;20113;-87
2022/01/26 09:36:47;;;;;;;15.07;8.40;;;;;;;;;;5015210;28;20470;-84
2022/01/26 09:39:14;;;;;;;14.20;7.63;;;;;;;;;;5020759;28;20053;-86
2022/01/26 09:41:41;;;;;;;14.63;7.45;;;;;;;;;;5018985;28;20050;-88
2022/01/26 09:44:07;;;;;;;14.25;7.60;;;;;;;;;;5030217;28;20042;-89
2022/01/26 09:46:33;;;;;;;14.95;7.30;;;;;;;;;;5033156;28;20032;-89
2022/01/26 09:49:01;;;;;;;12.23;7.35;;;;;;;;;;5014270;28;20045;-84
2022/01/26 09:51:27;;;;;;;14.95;7.95;;;;;;;;;;5002337;28;20029;-88
2022/01/26 09:54:02;;;;;;;13.15;7.68;;;;;;;;;;5015572;28;20050;-83
2022/01/26 09:56:28;;;;;;;44.63;21.52;;;;;;;;;;5013015;28;20312;-84
2022/01/26 09:58:55;;;;;;;14.60;7.43;;;;;;;;;;5015466;28;20052;-80
2022/01/26 10:01:21;;;;;;;15.23;7.78;;;;;;;;;;5037374;28;20045;-87
2022/01/26 10:03:48;;;;;;;15.02;8.65;;;;;;;;;;5033635;28;20123;-79
2022/01/26 10:06:25;;;;;;;29.02;13.88;;;;;;;;;;5033658;28;20505;-80
2022/01/26 10:19:06;;;;;;;18.02;8.57;;;;;;;;;;5016667;28;20045;-86
2022/01/26 10:21:32;;;;;;;;;;;;;;;;;;4999789;28;20104;-82
2022/01/26 10:24:07;;;;;;;13.77;6.97;;;;;;;;;;5008706;28;20530;-84
2022/01/26 10:26:33;;;;;;;11.98;6.72;;;;;;;;;;4991000;28;20056;-80
2022/01/26 10:29:02;;;;;;;15.65;6.53;;;;;;;;;;5024017;28;20066;-80
2022/01/26 10:31:33;;;;;;;14.45;7.32;;;;;;;;;;5011512;28;20533;-80
2022/01/26 10:34:11;;;;;;;13.80;7.15;;;;;;;;;;5023274;28;20052;-80
2022/01/26 10:36:37;;;;;;;14.77;7.57;;;;;;;;;;5013470;28;20543;-80
2022/01/26 10:39:08;;;;;;;14.05;7.00;;;;;;;;;;4988458;28;20060;-86
2022/01/26 10:41:34;;;;;;;;;;;;;;;;;;5023197;28;20358;-85
2022/01/26 10:44:02;;;;;;;12.23;5.85;;;;;;;;;;5027445;28;20341;-83
2022/01/26 10:46:31;;;;;;;13.82;6.95;;;;;;;;;;5024468;28;20064;-80
2022/01/26 10:54:37;;;;;;;15.32;8.30;;;;;;;;;;5009409;28;20465;-79
2022/01/26 10:57:07;;;;;;;12.65;6.43;;;;;;;;;;5031554;28;20040;-84
2022/01/26 10:59:38;;;;;;;16.63;7.60;;;;;;;;;;5011296;28;20050;-84
2022/01/26 11:02:05;;;;;;;16.20;7.18;;;;;;;;;;5009465;28;20049;-87
2022/01/26 11:04:34;;;;;;;13.88;6.97;;;;;;;;;;4995680;28;20057;-86
2022/01/26 11:07:01;;;;;;;13.68;6.50;;;;;;;;;;5004039;28;20662;-84
2022/01/26 11:09:31;;;;;;;15.98;7.60;;;;;;;;;;5008356;28;20033;-87
2022/01/26 11:12:06;;;;;;;12.93;6.93;;;;;;;;;;5012328;28;20051;-77
2022/01/26 11:14:43;;;;;;;13.73;7.15;;;;;;;;;;5006199;28;20060;-79
2022/01/26 11:17:13;;;;;;;13.73;6.97;;;;;;;;;;5017257;28;20057;-80
2022/01/26 11:19:41;;;;;;;15.30;7.40;;;;;;;;;;5018985;28;20456;-80
2022/01/26 11:22:08;;;;;;;14.10;7.65;;;;;;;;;;4999394;28;20045;-91
2022/01/26 11:24:48;;;;;;;39.38;18.40;;;;;;;;;;5014671;28;20061;-92
2022/01/26 11:27:16;;;;;;;16.20;7.18;;;;;;;;;;5006108;28;20049;-91
2022/01/26 11:29:47;;;;;;;16.20;8.30;;;;;;;;;;5014568;28;20026;-92
2022/01/26 11:32:21;;;;;;;16.45;7.88;;;;;;;;;;5015717;28;20042;-84
2022/01/26 11:34:55;;;;;;;13.25;6.97;;;;;;;;;;5011403;28;20046;-84
2022/01/26 11:37:46;;;;;;;19.13;7.85;;;;;;;;;;5012377;28;21399;-87
2022/01/26 11:46:11;;;;;;;18.65;7.82;;;;;;;;;;5015113;28;20037;-89
2022/01/26 11:48:38;;;;;;;17.60;8.13;;;;;;;;;;5026530;28;20506;-83
2022/01/26 11:51:05;;;;;;;15.25;7.60;;;;;;;;;;5011290;28;20034;-90
2022/01/26 11:53:32;;;;;;;14.10;6.88;;;;;;;;;;5008239;28;20041;-86
2022/01/26 11:56:09;;;;;;;14.35;6.72;;;;;;;;;;5018234;28;20526;-84
2022/01/26 11:58:41;;;;;;;17.98;8.50;;;;;;;;;;5017607;28;20045;-83
2022/01/26 12:01:30;;;;;;;13.73;7.18;;;;;;;;;;5000765;28;20042;-79
2022/01/26 12:03:58;;;;;;;17.00;7.93;;;;;;;;;;5017323;28;20519;-86
2022/01/26 12:06:35;;;;;;;16.08;8.13;;;;;;;;;;5021201;28;20037;-85
2022/01/26 12:09:05;;;;;;;16.45;8.07;;;;;;;;;;5020155;28;20068;-87
2022/01/26 12:11:31;;;;;;;17.92;8.20;;;;;;;;;;5018654;28;20196;-81
2022/01/26 12:14:05;;;;;;;15.57;7.50;;;;;;;;;;5007324;28;20049;-85
2022/01/26 12:16:39;;;;;;;17.40;8.13;;;;;;;;;;5013516;28;20038;-84
2022/01/26 12:33:31;;;;;;;18.70;9.65;;;;;;;;;;5016469;28;20042;-78
2022/01/26 12:36:03;;;;;;;18.58;9.05;;;;;;;;;;5011342;28;20045;-82
2022/01/26 12:38:44;;;;;;;19.15;9.70;;;;;;;;;;5019104;28;20065;-79
2022/01/26 12:44:00;;;;;;;17.50;8.40;;;;;;;;;;5016611;28;20037;-81
2022/01/26 12:46:36;;;;;;;19.25;9.63;;;;;;;;;;5018908;28;20064;-81
2022/01/26 12:54:48;;;;;;;21.05;10.75;;;;;;;;;;5885137;22;20049;-75
2022/01/26 12:57:14;;;;;;;23.02;11.80;;;;;;;;;;5198033;22;20047;-74
2022/01/26 12:59:40;;;;;;;25.85;12.20;;;;;;;;;;5020757;28;20045;-74
2022/01/26 13:02:06;;;;;;;19.75;10.05;;;;;;;;;;5042991;28;20041;-77
2022/01/26 13:04:32;;;;;;;19.42;9.93;;;;;;;;;;5043866;28;20428;-75
2022/01/26 13:06:58;;;;;;;19.88;10.15;;;;;;;;;;5027408;28;20030;-75
2022/01/26 13:09:26;;;;;;;22.05;10.93;;;;;;;;;;5059248;28;20051;-75
2022/01/26 13:11:54;;;;;;;23.00;11.07;;;;;;;;;;5028637;28;20044;-74
2022/01/26 13:14:30;;;;;;;22.52;10.73;;;;;;;;;;5049132;28;20049;-76
2022/01/26 13:17:00;;;;;;;22.00;10.30;;;;;;;;;;5042325;28;20041;-76
2022/01/26 13:19:40;;;;;;;22.58;11.48;;;;;;;;;;5046343;28;20149;-76
2022/01/26 13:24:54;;;;;;;26.13;11.52;;;;;;;;;;5036720;28;20058;-76
2022/01/26 13:27:38;;;;;;;23.83;11.77;;;;;;;;;;5054864;28;20056;-74
2022/01/26 13:30:25;;;;;;;26.08;11.27;;;;;;;;;;5047390;28;20040;-75
2022/01/26 13:54:28;;;;;;;24.98;12.10;;;;;;;;;;5053766;28;20044;-76
2022/01/26 13:59:22;;;;;;;23.20;11.35;;;;;;;;;;5021641;28;20459;-75
2022/01/26 14:01:50;;;;;;;26.80;12.90;;;;;;;;;;5008717;28;20061;-75
2022/01/26 14:04:17;;;;;;;27.02;12.45;;;;;;;;;;5024544;28;20038;-75
2022/01/26 14:06:44;;;;;;;25.92;12.25;;;;;;;;;;5040128;28;20033;-74
2022/01/26 14:09:10;;;;;;;25.67;12.30;;;;;;;;;;5045684;28;20033;-74
2022/01/26 14:11:37;;;;;;;30.42;12.95;;;;;;;;;;5012053;28;20056;-74
2022/01/26 14:14:03;;;;;;;24.27;11.80;;;;;;;;;;5011523;28;20043;-75
2022/01/26 14:16:37;;;;;;;26.98;12.43;;;;;;;;;;5041649;28;20500;-75
2022/01/26 14:19:13;;;;;;;26.25;12.38;;;;;;;;;;5040523;28;20029;-75
2022/01/26 14:26:59;;;;;;;25.05;11.25;;;;;;;;;;5007131;28;20045;-75
2022/01/26 14:29:39;;;;;;;29.52;11.82;;;;;;;;;;5034405;28;20036;-76
2022/01/26 14:51:15;;;;;;;28.80;13.05;;;;;;;;;;5018111;28;20393;-76
2022/01/26 15:34:45;;;;;;;24.73;10.88;;;;;;;;;;5040571;28;20037;-75
2022/01/26 15:40:21;;;;;;;27.20;12.50;;;;;;;;;;5041299;28;21186;-77
2022/01/26 15:43:25;;;;;;;24.58;11.30;;;;;;;;;;5020233;28;20068;-79
2022/01/26 15:51:21;;;;;;;30.30;14.00;;;;;;;;;;5044453;28;20041;-74
2022/01/26 16:05:13;;;;;;;27.38;13.35;;;;;;;;;;5037626;28;20029;-75
2022/01/26 16:07:53;;;;;;;30.05;14.38;;;;;;;;;;5024200;28;20509;-75
2022/01/26 16:21:22;;;;;;;;;;;;;;;;;;5039836;28;20033;-75
2022/01/26 18:15:14;;;;;;;32.50;14.77;;;;;;;;;;5055337;28;20029;-75
2022/01/26 18:33:09;;;;;;;32.38;14.75;;;;;;;;;;5053370;28;20044;-74
2022/01/26 18:49:19;;;;;;;32.40;15.30;;;;;;;;;;5064900;28;20500;-77
2022/01/26 18:51:57;;;;;;;29.80;14.30;;;;;;;;;;5044771;28;20056;-75
2022/01/26 18:54:26;;;;;;;27.63;13.25;;;;;;;;;;5048278;28;20160;-76
2022/01/26 18:56:54;;;;;;;28.23;14.45;;;;;;;;;;5061412;28;20044;-75
2022/01/26 18:59:22;;;;;;;29.75;14.30;;;;;;;;;;5043677;28;20053;-76
2022/01/26 19:01:52;;;;;;;30.67;14.75;;;;;;;;;;5062759;28;20036;-79
2022/01/26 19:04:25;;;;;;;30.13;13.98;;;;;;;;;;5079386;28;20024;-77
2022/01/26 19:06:53;;;;;;;29.98;14.05;;;;;;;;;;5043002;28;20722;-73
2022/01/26 19:09:23;;;;;;;31.48;14.77;;;;;;;;;;5062138;28;20557;-74
2022/01/26 19:11:49;;;;;;;29.83;14.00;;;;;;;;;;5061038;28;20055;-77
2022/01/26 19:14:15;;;;;;;31.45;14.88;;;;;;;;;;5047472;28;20033;-76
2022/01/26 19:16:47;;;;;;;32.38;15.48;;;;;;;;;;5024711;28;20045;-76
2022/01/26 19:19:37;;;;;;;29.67;14.95;;;;;;;;;;5043374;28;20036;-77
2022/01/26 19:22:25;;;;;;;32.78;15.95;;;;;;;;;;5046723;28;20415;-77
2022/01/26 19:27:37;;;;;;;33.40;16.30;;;;;;;;;;5048487;28;20041;-76
2022/01/26 19:51:08;;;;;;;29.13;14.55;;;;;;;;;;5074626;28;20044;-78
2022/01/26 19:53:35;;;;;;;31.95;14.73;;;;;;;;;;5067688;28;20032;-79
2022/01/26 19:56:01;;;;;;;29.77;14.40;;;;;;;;;;5042723;28;20059;-77
2022/01/26 19:58:27;;;;;;;29.45;13.95;;;;;;;;;;5044870;28;20033;-79
2022/01/26 20:00:53;;;;;;;30.50;14.98;;;;;;;;;;5040757;28;20032;-79
2022/01/26 20:03:21;;;;;;;27.15;14.38;;;;;;;;;;5058173;28;20044;-77
2022/01/26 20:05:51;;;;;;;29.27;14.43;;;;;;;;;;5067517;28;20032;-78
2022/01/26 20:10:53;;;;;;;31.13;14.60;;;;;;;;;;5058496;28;20036;-75
2022/01/26 20:13:31;;;;;;;29.92;14.02;;;;;;;;;;5033571;28;20045;-77
2022/01/26 20:15:58;;;;;;;27.92;13.20;;;;;;;;;;5032216;28;20048;-77
2022/01/26 20:18:24;;;;;;;32.25;14.32;;;;;;;;;;5025050;28;20037;-77
2022/01/26 20:20:53;;;;;;;26.95;13.45;;;;;;;;;;5048462;28;20055;-76
2022/01/26 20:25:16;;;;;;;27.40;13.70;;;;;;;;;;4964980;27;20636;-77
2022/01/26 20:27:43;;;;;;;26.95;13.73;;;;;;;;;;4984272;28;20054;-78
2022/01/26 20:30:21;;;;;;;28.42;13.85;;;;;;;;;;5038851;28;20072;-74
2022/01/26 20:32:49;;;;;;;25.45;13.80;;;;;;;;;;5024504;28;20034;-82
2022/01/26 20:35:17;;;;;;;28.80;14.25;;;;;;;;;;5023509;28;20037;-78
2022/01/26 20:37:44;;;;;;;23.15;12.10;;;;;;;;;;5038664;28;20045;-78
2022/01/26 20:40:11;;;;;;;24.85;12.52;;;;;;;;;;5024265;28;20395;-77
2022/01/26 20:42:38;;;;;;;38.85;19.30;;;;;;;;;;5027444;28;20402;-77
2022/01/26 20:45:06;;;;;;;31.52;14.52;;;;;;;;;;5023421;28;20455;-77
2022/01/26 20:47:34;;;;;;;25.02;12.77;;;;;;;;;;5007681;28;20065;-77
2022/01/26 20:49:59;;;;;;;27.52;13.73;;;;;;;;;;5004572;28;20050;-76
2022/01/26 20:52:25;;;;;;;28.85;13.90;;;;;;;;;;5004412;28;20042;-76
2022/01/26 20:54:51;;;;;;;26.30;12.75;;;;;;;;;;5004460;28;20038;-76
2022/01/26 20:57:17;;;;;;;26.83;13.50;;;;;;;;;;5004017;28;20061;-77
2022/01/26 20:59:46;;;;;;;28.23;13.27;;;;;;;;;;5003122;28;20400;-77
2022/01/26 21:02:12;;;;;;;29.05;13.77;;;;;;;;;;4972355;28;20630;-78
2022/01/26 21:04:38;;;;;;;28.95;13.15;;;;;;;;;;5022687;28;20034;-78
2022/01/26 21:07:04;;;;;;;25.90;12.73;;;;;;;;;;5005695;28;20121;-78
2022/01/26 21:09:30;;;;;;;27.20;13.27;;;;;;;;;;5002810;28;20844;-81
2022/01/26 21:11:56;;;;;;;27.50;12.52;;;;;;;;;;5015225;28;20084;-76
2022/01/26 21:14:22;;;;;;;28.90;13.82;;;;;;;;;;5016970;28;20476;-78
2022/01/26 21:16:47;;;;;;;30.38;14.68;;;;;;;;;;5009979;28;20395;-80
2022/01/26 21:19:13;;;;;;;34.55;15.57;;;;;;;;;;5023771;28;20137;-78
2022/01/26 21:21:40;;;;;;;36.50;16.65;;;;;;;;;;5021955;28;20033;-77
2022/01/26 21:24:06;;;;;;;33.53;15.65;;;;;;;;;;5003496;28;20042;-77
2022/01/26 21:26:33;;;;;;;33.10;15.10;;;;;;;;;;5002609;28;20062;-77
2022/01/26 21:28:59;;;;;;;30.08;14.00;;;;;;;;;;5002928;28;20042;-75
2022/01/26 21:31:25;;;;;;;29.10;13.18;;;;;;;;;;5003262;28;20423;-75
2022/01/26 21:33:52;;;;;;;31.45;14.55;;;;;;;;;;5017277;28;20046;-76
2022/01/26 21:36:17;;;;;;;31.88;14.68;;;;;;;;;;5011237;28;20045;-77
2022/01/26 21:38:46;;;;;;;27.75;14.27;;;;;;;;;;5009352;28;20029;-77
2022/01/26 21:41:13;;;;;;;31.45;14.15;;;;;;;;;;5009558;28;20104;-76
2022/01/26 21:43:39;;;;;;;32.42;13.93;;;;;;;;;;5009425;28;20053;-77
2022/01/26 21:46:05;;;;;;;30.25;14.57;;;;;;;;;;5009619;28;20050;-76
2022/01/26 21:48:31;;;;;;;35.63;14.90;;;;;;;;;;5017184;28;20500;-76
2022/01/26 21:50:58;;;;;;;33.35;15.02;;;;;;;;;;4990412;28;20494;-75
2022/01/26 21:53:24;;;;;;;53.85;25.15;;;;;;;;;;5005631;28;20037;-76
2022/01/26 21:55:50;;;;;;;38.30;18.13;;;;;;;;;;5010281;28;20085;-76
2022/01/26 21:58:16;;;;;;;31.65;13.93;;;;;;;;;;5009310;28;20042;-76
2022/01/26 22:00:42;;;;;;;27.45;13.00;;;;;;;;;;5010068;28;20833;-77